2AR4 weather

Mc Crory/Morton Airport
Mc Crory, Arkansas, United States

Public forecast

Using degrees Fahrenheit for public forecast. Weather courtesy of forecast.io.

Closest aviation weather report (METAR) to Mc Crory/Morton Airport

Closest report is Newport Regional Airport, 24.9 nm (46.2 km) N. Retrieved UTC (0 seconds ago):

Closest aviation forecast (TAF) to Mc Crory/Morton Airport

Closest forecast is Jonesboro Municipal Airport, 42.3 nm (78.4 km) NNE. Retrieved 2020/01/18 06:22 UTC (2 hours ago):

TAF KJBR 180520Z 1806/1906 17007KT P6SM VCSH OVC025 WS020/18045KT TEMPO 1809/1811 18012KT 4SM -SHRA BKN010 OVC020 FM181100 18015G22KT 4SM -SHRA OVC010 WS020/18045KT FM181300 26018G25KT P6SM SCT015 OVC025 FM181600 28012KT P6SM BKN050 OVC100 FM182100 30010KT P6SM SCT200 FM190100 32010KT P6SM SKC